createdAt,value
2022-08-05T00:01:36.296Z,100343.25
2022-08-05T00:04:18.011Z,100343.28
2022-08-05T00:06:47.210Z,100345.91
2022-08-05T00:09:15.935Z,100340.66
2022-08-05T00:11:48.706Z,100340.66
2022-08-05T00:14:29.002Z,100337.19
2022-08-05T00:17:03.071Z,100342.41
2022-08-05T00:19:33.295Z,100336.28
2022-08-05T00:22:15.516Z,100331.13
2022-08-05T00:24:45.567Z,100334.63
2022-08-05T00:27:22.857Z,100339.88
2022-08-05T00:30:11.271Z,100345.94
2022-08-05T00:32:39.283Z,100334.59
2022-08-05T00:35:08.747Z,100338.94
2022-08-05T00:37:52.412Z,100336.31
2022-08-05T00:40:28.339Z,100339.00
2022-08-05T00:43:00.538Z,100339.84
2022-08-05T00:45:42.965Z,100334.63
2022-08-05T00:48:13.542Z,100334.66
2022-08-05T00:50:44.378Z,100330.34
2022-08-05T00:54:01.029Z,100335.56
2022-08-05T00:56:05.680Z,100340.81
2022-08-05T00:58:36.253Z,100328.56
2022-08-05T01:01:08.712Z,100336.44
2022-08-05T01:03:38.211Z,100329.44
2022-08-05T01:06:14.216Z,100343.41
2022-08-05T01:08:44.815Z,100342.56
2022-08-05T01:11:36.943Z,100340.75
2022-08-05T01:14:28.081Z,100337.22
2022-08-05T01:17:06.456Z,100344.28
2022-08-05T01:20:02.368Z,100338.16
2022-08-05T01:23:15.542Z,100341.69
2022-08-05T01:25:59.585Z,100328.72
2022-08-05T01:28:39.491Z,100338.28
2022-08-05T01:31:14.697Z,100330.53
2022-08-05T01:34:00.141Z,100332.25
2022-08-05T01:36:34.269Z,100334.06
2022-08-05T01:39:12.206Z,100341.97
2022-08-05T01:41:44.502Z,100344.59
2022-08-05T01:44:14.182Z,100342.81
2022-08-05T01:46:46.381Z,100335.84
2022-08-05T01:49:23.917Z,100332.34
2022-08-05T01:51:59.034Z,100338.47
2022-08-05T01:54:52.987Z,100334.94
2022-08-05T01:58:11.161Z,100333.22
2022-08-05T02:00:19.446Z,100332.38
2022-08-05T02:02:57.701Z,100335.00
2022-08-05T02:05:34.141Z,100324.53
2022-08-05T02:08:02.133Z,100336.66
2022-08-05T02:10:36.720Z,100335.91
2022-08-05T02:13:19.128Z,100341.13
2022-08-05T02:15:59.726Z,100341.97
2022-08-05T02:18:41.860Z,100339.34
2022-08-05T02:21:16.556Z,100339.31
2022-08-05T02:23:52.447Z,100349.75
2022-08-05T02:26:27.679Z,100348.94
2022-08-05T02:28:58.224Z,100353.31
2022-08-05T02:31:34.843Z,100349.84
2022-08-05T02:34:09.270Z,100355.94
2022-08-05T02:36:44.098Z,100361.16
2022-08-05T02:39:16.702Z,100352.44
2022-08-05T02:42:00.663Z,100357.69
2022-08-05T02:44:30.717Z,100363.81
2022-08-05T02:47:00.975Z,100370.78
2022-08-05T02:49:36.558Z,100363.75
2022-08-05T02:52:29.475Z,100370.69
2022-08-05T02:55:05.606Z,100372.44
2022-08-05T02:58:10.220Z,100371.59
2022-08-05T03:00:29.159Z,100373.31
2022-08-05T03:02:58.845Z,100370.69
2022-08-05T03:06:55.504Z,100375.94
2022-08-05T03:08:16.566Z,100382.03
2022-08-05T03:11:53.256Z,100378.56
2022-08-05T03:13:51.630Z,100382.03
2022-08-05T03:16:22.658Z,100389.03
2022-08-05T03:18:50.484Z,100375.97
2022-08-05T03:21:20.127Z,100382.06
2022-08-05T03:23:49.694Z,100375.06
2022-08-05T03:26:31.312Z,100386.41
2022-08-05T03:29:02.458Z,100385.53
2022-08-05T03:31:56.990Z,100386.38
2022-08-05T03:34:20.173Z,100390.75
2022-08-05T03:36:52.355Z,100393.31
2022-08-05T03:39:27.128Z,100389.75
2022-08-05T03:41:58.448Z,100396.69
2022-08-05T03:44:28.982Z,100395.72
2022-08-05T03:46:56.836Z,100393.97
2022-08-05T03:49:24.360Z,100410.53
2022-08-05T03:52:39.072Z,100407.00
2022-08-05T03:56:01.797Z,100410.47
2022-08-05T03:58:05.332Z,100426.28
2022-08-05T04:00:33.167Z,100414.06
2022-08-05T04:03:03.095Z,100416.69
2022-08-05T04:05:34.696Z,100415.81
2022-08-05T04:08:05.663Z,100428.00
2022-08-05T04:10:44.095Z,100430.53
2022-08-05T04:13:12.388Z,100420.84
2022-08-05T04:16:02.839Z,100417.34
2022-08-05T04:18:27.987Z,100431.19
2022-08-05T04:20:57.480Z,100430.31
2022-08-05T04:24:04.960Z,100423.38
2022-08-05T04:26:14.846Z,100428.69
2022-08-05T04:28:51.058Z,100423.50
2022-08-05T04:31:20.128Z,100425.38
2022-08-05T04:34:17.903Z,100424.56
2022-08-05T04:36:46.121Z,100427.22
2022-08-05T04:39:19.075Z,100422.03
2022-08-05T04:41:48.121Z,100423.75
2022-08-05T04:44:21.540Z,100428.19
2022-08-05T04:46:59.585Z,100422.97
2022-08-05T04:49:38.368Z,100430.91
2022-08-05T04:52:16.048Z,100418.69
2022-08-05T04:54:43.652Z,100417.84
2022-08-05T04:57:13.639Z,100424.00
2022-08-05T04:59:41.263Z,100416.09
2022-08-05T05:02:37.281Z,100419.59
2022-08-05T05:05:01.729Z,100423.09
2022-08-05T05:07:35.381Z,100425.72
2022-08-05T05:10:06.546Z,100426.53
2022-08-05T05:12:34.403Z,100433.56
2022-08-05T05:15:06.099Z,100437.88
2022-08-05T05:17:57.067Z,100429.09
2022-08-05T05:20:28.495Z,100432.56
2022-08-05T05:23:04.176Z,100430.75
2022-08-05T05:25:41.070Z,100427.19
2022-08-05T05:28:10.036Z,100435.88
2022-08-05T05:30:39.298Z,100438.44
2022-08-05T05:33:16.981Z,100437.47
2022-08-05T05:35:47.623Z,100433.03
2022-08-05T05:38:26.801Z,100418.13
2022-08-05T05:40:58.568Z,100430.31
2022-08-05T05:43:54.810Z,100432.81
2022-08-05T05:46:21.910Z,100433.66
2022-08-05T05:48:49.567Z,100438.84
2022-08-05T05:51:21.798Z,100443.09
2022-08-05T05:53:57.921Z,100435.13
2022-08-05T05:56:31.957Z,100440.22
2022-08-05T05:59:06.934Z,100426.97
2022-08-05T06:01:39.583Z,100432.00
2022-08-05T06:04:12.055Z,100425.72
2022-08-05T06:06:42.998Z,100440.34
2022-08-05T06:09:17.645Z,100443.69
2022-08-05T06:12:01.696Z,100423.44
2022-08-05T06:14:31.493Z,100433.69
2022-08-05T06:17:02.086Z,100431.63
2022-08-05T06:19:56.533Z,100425.19
2022-08-05T06:22:28.342Z,100430.03
2022-08-05T06:24:55.924Z,100433.16
2022-08-05T06:28:11.070Z,100435.84
2022-08-05T06:30:16.838Z,100428.63
2022-08-05T06:32:47.787Z,100442.56
2022-08-05T06:36:03.167Z,100435.06
2022-08-05T06:38:11.324Z,100434.41
2022-08-05T06:40:44.904Z,100437.19
2022-08-05T06:43:58.622Z,100435.88
2022-08-05T06:46:06.945Z,100437.78
2022-08-05T06:48:55.321Z,100435.38
2022-08-05T06:51:29.416Z,100434.56
2022-08-05T06:54:02.435Z,100437.44
2022-08-05T06:56:34.104Z,100435.94
2022-08-05T06:59:08.503Z,100430.66
2022-08-05T07:01:42.270Z,100441.09
2022-08-05T07:04:10.842Z,100439.66
2022-08-05T07:06:41.772Z,100437.63
2022-08-05T07:09:09.444Z,100429.41
2022-08-05T07:11:39.898Z,100425.69
2022-08-05T07:14:29.796Z,100440.72
2022-08-05T07:18:00.823Z,100437.16
2022-08-05T07:22:41.992Z,100433.53
2022-08-05T07:25:54.287Z,100436.84
2022-08-05T07:28:05.374Z,100433.63
2022-08-05T07:30:38.816Z,100430.28
2022-08-05T07:33:16.850Z,100433.28
2022-08-05T07:36:03.791Z,100440.75
2022-08-05T07:38:43.421Z,100434.22
2022-08-05T07:42:08.032Z,100429.19
2022-08-05T07:44:07.534Z,100424.06
2022-08-05T07:46:45.937Z,100411.34
2022-08-05T07:49:16.326Z,100414.16
2022-08-05T07:51:53.909Z,100418.22
2022-08-05T07:54:31.486Z,100422.88
2022-08-05T07:57:17.662Z,100416.75
2022-08-05T07:59:52.283Z,100409.47
2022-08-05T08:02:26.784Z,100416.00
2022-08-05T08:04:59.725Z,100396.69
2022-08-05T08:07:29.012Z,100398.94
2022-08-05T08:10:07.070Z,100416.66
2022-08-05T08:12:49.411Z,100409.06
2022-08-05T08:15:17.621Z,100417.19
2022-08-05T08:18:14.239Z,100419.94
2022-08-05T08:21:03.094Z,100407.59
2022-08-05T08:24:01.741Z,100418.50
2022-08-05T08:26:17.801Z,100400.16
2022-08-05T08:29:09.793Z,100403.28
2022-08-05T08:31:50.519Z,100417.66
2022-08-05T08:34:30.521Z,100409.19
2022-08-05T08:37:04.572Z,100410.94
2022-08-05T08:39:37.458Z,100411.59
2022-08-05T08:42:32.395Z,100418.44
2022-08-05T08:45:18.683Z,100412.09
2022-08-05T08:48:10.497Z,100410.44
2022-08-05T08:51:04.108Z,100416.22
2022-08-05T08:53:36.296Z,100417.16
2022-08-05T08:56:06.497Z,100408.09
2022-08-05T08:58:43.331Z,100412.78
2022-08-05T09:01:16.842Z,100423.53
2022-08-05T09:03:54.516Z,100411.63
2022-08-05T09:06:30.529Z,100402.03
2022-08-05T09:09:00.684Z,100405.78
2022-08-05T09:11:53.819Z,100408.97
2022-08-05T09:14:57.193Z,100405.97
2022-08-05T09:17:41.220Z,100397.78
2022-08-05T09:20:05.094Z,100388.59
2022-08-05T09:23:09.068Z,100400.34
2022-08-05T09:26:01.205Z,100396.34
2022-08-05T09:28:32.164Z,100391.50
2022-08-05T09:31:43.313Z,100390.00
2022-08-05T09:34:07.158Z,100393.19
2022-08-05T09:36:55.697Z,100387.38
2022-08-05T09:39:45.156Z,100374.53
2022-08-05T09:42:23.099Z,100380.38
2022-08-05T09:44:56.379Z,100383.38
2022-08-05T09:47:34.960Z,100376.56
2022-08-05T09:50:18.177Z,100377.41
2022-08-05T09:53:01.765Z,100373.16
2022-08-05T09:55:56.349Z,100386.81
2022-08-05T09:58:24.707Z,100383.16
2022-08-05T10:00:59.290Z,100380.72
2022-08-05T10:03:56.557Z,100381.19
2022-08-05T10:06:20.628Z,100380.50
2022-08-05T10:08:53.990Z,100374.72
2022-08-05T10:11:35.022Z,100368.47
2022-08-05T10:14:38.592Z,100374.72
2022-08-05T10:17:37.379Z,100380.50
2022-08-05T10:20:10.086Z,100371.28
2022-08-05T10:22:43.161Z,100376.94
2022-08-05T10:25:19.786Z,100376.13
2022-08-05T10:28:12.679Z,100369.72
2022-08-05T10:32:47.137Z,100375.59
2022-08-05T10:33:36.059Z,100367.34
2022-08-05T10:36:06.596Z,100373.44
2022-08-05T10:38:37.875Z,100366.66
2022-08-05T10:41:45.534Z,100364.53
2022-08-05T10:44:19.144Z,100369.94
2022-08-05T10:46:56.470Z,100366.25
2022-08-05T10:49:26.915Z,100359.16
2022-08-05T10:52:05.220Z,100369.94
2022-08-05T10:55:16.017Z,100368.38
2022-08-05T10:57:51.224Z,100365.91
2022-08-05T11:00:24.697Z,100360.94
2022-08-05T11:03:23.300Z,100362.56
2022-08-05T11:06:15.450Z,100362.84
2022-08-05T11:09:13.017Z,100353.84
2022-08-05T11:11:53.988Z,100343.28
2022-08-05T11:15:01.433Z,100355.78
2022-08-05T11:18:00.349Z,100351.06
2022-08-05T11:20:44.027Z,100353.66
2022-08-05T11:24:04.819Z,100355.41
2022-08-05T11:26:32.458Z,100341.34
2022-08-05T11:29:12.789Z,100338.31
2022-08-05T11:31:57.909Z,100338.34
2022-08-05T11:34:47.473Z,100346.22
2022-08-05T11:38:36.840Z,100345.47
2022-08-05T11:41:12.970Z,100349.94
2022-08-05T11:44:07.298Z,100343.44
2022-08-05T11:46:58.196Z,100346.78
2022-08-05T11:49:26.557Z,100339.84
2022-08-05T11:51:57.456Z,100336.31
2022-08-05T11:54:34.020Z,100331.97
2022-08-05T11:57:08.470Z,100336.97
2022-08-05T11:59:52.101Z,100328.72
2022-08-05T12:02:32.038Z,100324.19
2022-08-05T12:05:08.221Z,100335.38
2022-08-05T12:08:10.384Z,100324.00
2022-08-05T12:10:45.721Z,100321.66
2022-08-05T12:13:17.337Z,100333.56
2022-08-05T12:15:49.639Z,100326.34
2022-08-05T12:18:38.861Z,100325.53
2022-08-05T12:21:18.885Z,100326.84
2022-08-05T12:24:04.611Z,100332.19
2022-08-05T12:26:39.261Z,100327.41
2022-08-05T12:29:23.389Z,100323.09
2022-08-05T12:31:56.400Z,100313.31
2022-08-05T12:34:46.442Z,100323.25
2022-08-05T12:37:21.635Z,100320.38
2022-08-05T12:39:53.934Z,100313.69
2022-08-05T12:42:25.306Z,100318.25
2022-08-05T12:45:12.081Z,100313.38
2022-08-05T12:47:43.435Z,100315.81
2022-08-05T12:50:32.059Z,100299.16
2022-08-05T12:53:00.334Z,100311.66
2022-08-05T12:55:32.491Z,100305.25
2022-08-05T12:58:52.570Z,100302.81
2022-08-05T13:02:01.666Z,100298.41
2022-08-05T13:03:43.059Z,100289.41
2022-08-05T13:06:17.861Z,100298.34
2022-08-05T13:08:52.283Z,100302.13
2022-08-05T13:12:02.099Z,100296.63
2022-08-05T13:14:24.945Z,100299.16
2022-08-05T13:17:09.795Z,100294.19
2022-08-05T13:19:50.896Z,100291.88
2022-08-05T13:22:28.437Z,100292.63
2022-08-05T13:25:00.431Z,100287.25
2022-08-05T13:27:39.984Z,100287.84
2022-08-05T13:30:33.619Z,100288.88
2022-08-05T13:33:01.446Z,100297.72
2022-08-05T13:35:43.297Z,100282.84
2022-08-05T13:38:28.410Z,100290.41
2022-08-05T13:41:00.376Z,100291.69
2022-08-05T13:43:45.377Z,100279.47
2022-08-05T13:46:30.715Z,100282.13
2022-08-05T13:49:10.182Z,100272.53
2022-08-05T13:51:46.119Z,100268.81
2022-08-05T13:54:17.114Z,100270.94
2022-08-05T13:56:50.759Z,100266.69
2022-08-05T13:59:24.441Z,100266.06
2022-08-05T14:01:56.825Z,100266.06
2022-08-05T14:04:53.187Z,100271.69
2022-08-05T14:07:26.398Z,100261.63
2022-08-05T14:10:13.703Z,100270.94
2022-08-05T14:12:48.766Z,100264.31
2022-08-05T14:16:04.404Z,100268.16
2022-08-05T14:18:18.727Z,100263.38
2022-08-05T14:20:54.725Z,100264.06
2022-08-05T14:23:25.639Z,100252.25
2022-08-05T14:26:04.965Z,100255.03
2022-08-05T14:28:52.077Z,100251.88
2022-08-05T14:31:54.378Z,100254.41
2022-08-05T14:34:11.934Z,100251.81
2022-08-05T14:36:39.713Z,100239.84
2022-08-05T14:39:07.561Z,100246.09
2022-08-05T14:41:38.686Z,100255.78
2022-08-05T14:44:20.724Z,100250.66
2022-08-05T14:46:49.626Z,100240.34
2022-08-05T14:49:17.157Z,100244.88
2022-08-05T14:51:44.688Z,100245.13
2022-08-05T14:54:28.639Z,100233.00
2022-08-05T14:56:59.419Z,100240.94
2022-08-05T14:59:29.747Z,100237.59
2022-08-05T15:02:15.737Z,100244.75
2022-08-05T15:04:45.011Z,100241.44
2022-08-05T15:08:08.792Z,100233.91
2022-08-05T15:10:03.730Z,100229.75
2022-08-05T15:12:45.804Z,100247.28
2022-08-05T15:15:55.917Z,100232.47
2022-08-05T15:18:11.134Z,100241.28
2022-08-05T15:20:42.391Z,100239.75
2022-08-05T15:23:12.044Z,100240.81
2022-08-05T15:25:52.619Z,100239.09
2022-08-05T15:28:27.548Z,100239.94
2022-08-05T15:30:56.370Z,100234.78
2022-08-05T15:34:04.545Z,100239.34
2022-08-05T15:36:24.109Z,100244.66
2022-08-05T15:40:58.698Z,100234.16
2022-08-05T15:41:58.564Z,100233.22
2022-08-05T15:44:30.349Z,100231.66
2022-08-05T15:47:01.018Z,100243.88
2022-08-05T15:49:48.048Z,100229.94
2022-08-05T15:52:51.811Z,100244.75
2022-08-05T15:55:07.022Z,100241.34
2022-08-05T15:57:40.493Z,100238.72
2022-08-05T16:00:09.664Z,100237.38
2022-08-05T16:02:41.580Z,100238.38
2022-08-05T16:05:11.272Z,100240.34
2022-08-05T16:07:46.546Z,100248.47
2022-08-05T16:10:16.924Z,100257.28
2022-08-05T16:12:51.579Z,100249.53
2022-08-05T16:15:21.799Z,100246.16
2022-08-05T16:17:57.768Z,100258.56
2022-08-05T16:20:25.868Z,100262.03
2022-08-05T16:22:55.519Z,100261.66
2022-08-05T16:25:32.135Z,100251.34
2022-08-05T16:28:05.865Z,100255.88
2022-08-05T16:30:34.402Z,100259.44
2022-08-05T16:33:04.688Z,100258.81
2022-08-05T16:35:42.429Z,100265.88
2022-08-05T16:38:23.747Z,100263.53
2022-08-05T16:41:00.887Z,100267.19
2022-08-05T16:43:31.929Z,100269.84
2022-08-05T16:46:06.167Z,100269.97
2022-08-05T16:48:38.555Z,100277.13
2022-08-05T16:51:10.141Z,100278.97
2022-08-05T16:54:04.706Z,100272.00
2022-08-05T16:56:29.585Z,100274.91
2022-08-05T16:58:58.478Z,100281.16
2022-08-05T17:01:26.465Z,100281.22
2022-08-05T17:03:54.076Z,100283.09
2022-08-05T17:06:24.536Z,100285.91
2022-08-05T17:08:54.372Z,100285.97
2022-08-05T17:11:25.935Z,100290.38
2022-08-05T17:14:05.418Z,100295.75
2022-08-05T17:16:38.353Z,100295.13
2022-08-05T17:19:07.324Z,100301.34
2022-08-05T17:21:36.752Z,100301.50
2022-08-05T17:24:14.378Z,100289.38
2022-08-05T17:26:55.519Z,100295.66
2022-08-05T17:29:33.647Z,100291.44
2022-08-05T17:32:11.824Z,100291.50
2022-08-05T17:34:48.374Z,100295.06
2022-08-05T17:37:40.648Z,100298.56
2022-08-05T17:40:27.938Z,100301.19
2022-08-05T17:42:59.103Z,100299.53
2022-08-05T17:45:29.527Z,100290.88
2022-08-05T17:48:07.935Z,100295.25
2022-08-05T17:50:35.872Z,100284.91
2022-08-05T17:53:05.217Z,100292.06
2022-08-05T17:55:39.460Z,100304.38
2022-08-05T17:58:10.782Z,100290.50
2022-08-05T18:00:44.935Z,100304.56
2022-08-05T18:03:39.372Z,100295.91
2022-08-05T18:06:12.118Z,100297.75
2022-08-05T18:08:46.178Z,100302.28
2022-08-05T18:11:23.952Z,100295.56
2022-08-05T18:14:03.703Z,100301.72
2022-08-05T18:16:33.279Z,100302.75
2022-08-05T18:19:05.414Z,100319.56
2022-08-05T18:22:07.837Z,100300.50
2022-08-05T18:24:25.983Z,100308.47
2022-08-05T18:26:54.654Z,100309.47
2022-08-05T18:29:39.947Z,100318.31
2022-08-05T18:32:12.603Z,100309.69
2022-08-05T18:34:42.983Z,100310.66
2022-08-05T18:37:12.570Z,100312.47
2022-08-05T18:40:31.742Z,100329.22
2022-08-05T18:42:28.597Z,100329.38
2022-08-05T18:44:56.701Z,100318.88
2022-08-05T18:47:26.456Z,100326.88
2022-08-05T18:50:15.448Z,100325.09
2022-08-05T18:52:50.913Z,100306.69
2022-08-05T18:55:20.386Z,100320.66
2022-08-05T18:57:53.201Z,100317.19
2022-08-05T19:00:27.001Z,100311.97
2022-08-05T19:02:57.863Z,100304.97
2022-08-05T19:06:11.319Z,100313.63
2022-08-05T19:08:22.059Z,100319.81
2022-08-05T19:10:59.706Z,100310.34
2022-08-05T19:13:35.977Z,100315.66
2022-08-05T19:16:25.030Z,100320.13
2022-08-05T19:18:53.694Z,100322.81
2022-08-05T19:21:26.060Z,100315.94
2022-08-05T19:24:05.686Z,100317.69
2022-08-05T19:26:36.892Z,100311.59
2022-08-05T19:29:40.174Z,100322.91
2022-08-05T19:32:11.516Z,100326.47
2022-08-05T19:34:39.489Z,100322.09
2022-08-05T19:37:07.248Z,100319.44
2022-08-05T19:39:45.897Z,100322.22
2022-08-05T19:42:35.553Z,100318.75
2022-08-05T19:45:05.971Z,100326.69
2022-08-05T19:47:40.461Z,100319.72
2022-08-05T19:50:10.661Z,100317.31
2022-08-05T19:52:40.049Z,100319.06
2022-08-05T19:56:11.516Z,100323.56
2022-08-05T19:58:19.704Z,100321.03
2022-08-05T20:00:46.744Z,100314.16
2022-08-05T20:03:14.573Z,100319.47
2022-08-05T20:05:49.913Z,100308.28
2022-08-05T20:08:18.205Z,100315.22
2022-08-05T20:10:45.750Z,100324.06
2022-08-05T20:13:18.382Z,100317.19
2022-08-05T20:15:58.102Z,100305.94
2022-08-05T20:18:33.094Z,100312.97
2022-08-05T20:21:04.750Z,100313.06
2022-08-05T20:23:39.653Z,100308.78
2022-08-05T20:26:20.781Z,100303.53
2022-08-05T20:28:50.993Z,100304.50
2022-08-05T20:31:21.907Z,100305.34
2022-08-05T20:33:51.769Z,100307.22
2022-08-05T20:36:21.374Z,100309.00
2022-08-05T20:38:53.343Z,100309.97
2022-08-05T20:41:44.290Z,100301.25
2022-08-05T20:44:18.978Z,100304.72
2022-08-05T20:47:06.753Z,100304.75
2022-08-05T20:49:39.872Z,100310.94
2022-08-05T20:52:08.837Z,100296.19
2022-08-05T20:54:59.488Z,100315.41
2022-08-05T20:57:43.430Z,100305.84
2022-08-05T21:00:35.004Z,100307.59
2022-08-05T21:03:07.941Z,100307.63
2022-08-05T21:05:54.269Z,100305.00
2022-08-05T21:08:41.385Z,100307.69
2022-08-05T21:11:11.957Z,100306.88
2022-08-05T21:13:55.874Z,100310.41
2022-08-05T21:16:29.377Z,100307.88
2022-08-05T21:19:01.695Z,100300.09
2022-08-05T21:21:39.848Z,100312.34
2022-08-05T21:24:15.333Z,100297.47
2022-08-05T21:26:50.255Z,100297.53
2022-08-05T21:29:26.493Z,100294.94
2022-08-05T21:31:58.917Z,100291.50
2022-08-05T21:34:26.425Z,100300.28
2022-08-05T21:36:55.873Z,100306.38
2022-08-05T21:39:26.971Z,100302.06
2022-08-05T21:42:01.420Z,100297.66
2022-08-05T21:44:31.730Z,100302.88
2022-08-05T21:47:00.401Z,100299.44
2022-08-05T21:50:00.414Z,100303.84
2022-08-05T21:52:26.858Z,100296.03
2022-08-05T21:55:05.993Z,100311.69
2022-08-05T21:57:35.485Z,100303.03
2022-08-05T22:00:11.266Z,100307.38
2022-08-05T22:02:42.936Z,100316.94
2022-08-05T22:05:12.307Z,100310.06
2022-08-05T22:07:58.364Z,100308.34
2022-08-05T22:10:31.038Z,100303.94
2022-08-05T22:13:58.812Z,100302.25
2022-08-05T22:16:02.071Z,100300.56
2022-08-05T22:18:36.086Z,100292.72
2022-08-05T22:21:19.410Z,100301.44
2022-08-05T22:24:13.191Z,100303.25
2022-08-05T22:27:17.384Z,100304.22
2022-08-05T22:29:45.917Z,100305.09
2022-08-05T22:32:22.986Z,100306.84
2022-08-05T22:34:51.606Z,100297.28
2022-08-05T22:37:19.219Z,100306.84
2022-08-05T22:39:50.525Z,100300.78
2022-08-05T22:42:25.430Z,100303.38
2022-08-05T22:44:56.823Z,100297.34
2022-08-05T22:47:29.828Z,100313.94
2022-08-05T22:50:19.119Z,100313.97
2022-08-05T22:52:51.307Z,100313.97
2022-08-05T22:55:21.752Z,100316.59
2022-08-05T22:57:55.844Z,100313.16
2022-08-05T23:00:26.463Z,100305.28
2022-08-05T23:02:58.073Z,100306.16
2022-08-05T23:05:25.932Z,100303.56
2022-08-05T23:07:54.360Z,100304.44
2022-08-05T23:10:33.985Z,100300.97
2022-08-05T23:13:02.468Z,100316.66
2022-08-05T23:15:34.810Z,100312.28
2022-08-05T23:18:06.138Z,100314.94
2022-08-05T23:20:39.724Z,100311.41
2022-08-05T23:23:08.815Z,100313.16
2022-08-05T23:25:51.003Z,100318.41
2022-08-05T23:28:22.368Z,100309.69
2022-08-05T23:30:53.831Z,100308.81
2022-08-05T23:34:02.730Z,100318.38
2022-08-05T23:36:13.613Z,100321.00
2022-08-05T23:38:42.817Z,100314.97
2022-08-05T23:41:11.312Z,100314.09
2022-08-05T23:44:05.855Z,100320.19
2022-08-05T23:46:26.640Z,100316.66
2022-08-05T23:49:03.738Z,100314.06
2022-08-05T23:52:02.235Z,100309.72
2022-08-05T23:54:36.599Z,100303.56
2022-08-05T23:57:06.738Z,100321.91
